Terminal Aerodrome Forecast
Issued by NWS Tampa Bay Area, FL

Home | Current Version | Previous Version | Text Only | Print | Product List | Glossary On
Versions: 1 2 3 4 5 6 7 8 9 10 11 12 13
509
FTUS42 KTBW 232330
TAFSRQ
TAF
KSRQ 232330Z 2400/2424 02007KT 5SM SHRA VCTS FEW025CB BKN030
     FM240100 04006KT P6SM SCT045 BKN250
     FM241400 07007KT P6SM SCT025 BKN250
     FM241800 04008KT P6SM VCTS SCT025CB BKN150=

USA.gov is the U.S. government's official web portal to all federal, state and local government web resources and services.